Norse Mersey — IBEN — position and weather

sailwx.info

Track history (hours):
 
Tides and Currents Weather Stations Pressure Air Temp Water Temp Dewpoint Dewpoint Depression Visibility Wind Speed Wind Dir Waves Ship Positions

Norse Mersey

Operator: Norse Merchant Ferries

Last reported at 2018-Jul-21 19:11 UTC. Time now 2018-Jul-22 07:02 UTC.
Position N 40°04' E 012°56'.

Length 175 m; draft 5.6 m.

Type: Ship (hazmat cat A). MMSI: 247026000.

Date/timePositionNaut miles runAvg speedWind from/ knotsBaromVisibWave heightAir tempDewpointWater temp
2018-Jul-21 19:11N 40°04' E 012°56'415.0
2018-Jul-21 18:56N 40°05' E 013°00'615.3
2018-Jul-21 18:30N 40°08' E 013°08'815.2
2018-Jul-21 18:00N 40°12' E 013°17'815.5
2018-Jul-21 17:30N 40°14' E 013°27'816.1
2018-Jul-21 17:00N 40°17' E 013°36'816.3
2018-Jul-21 16:30N 40°20' E 013°46'816.3
2018-Jul-21 16:00N 40°23' E 013°56'816.0
2018-Jul-21 15:30N 40°26' E 014°06'816.3
2018-Jul-21 15:00N 40°29' E 014°16'816.4
2018-Jul-21 14:30N 40°31' E 014°26'12 0.8
2018-Jul-20 23:36N 40°36' E 014°40'215.6
2018-Jul-20 23:29N 40°35' E 014°38'714.2
2018-Jul-20 23:00N 40°31' E 014°31'713.9
2018-Jul-20 22:31N 40°28' E 014°23'714.3
2018-Jul-20 22:00N 40°24' E 014°15'714.2
2018-Jul-20 21:30N 40°20' E 014°07'814.2
2018-Jul-20 20:57N 40°16' E 013°58'614.1
2018-Jul-20 20:29N 40°13' E 013°51'714.1
2018-Jul-20 20:00N 40°09' E 013°43'714.1
2018-Jul-20 19:31N 40°06' E 013°35'713.9
2018-Jul-20 19:01N 40°03' E 013°27'8113.6
2018-Jul-20 13:03N 39°26' E 011°53'213.4
2018-Jul-20 12:55N 39°25' E 011°51'613.8
2018-Jul-20 12:30N 39°24' E 011°44'814.0
2018-Jul-20 11:58N 39°22' E 011°34'913.8
2018-Jul-20 11:20N 39°20' E 011°23'2714.1
2018-Jul-20 09:25N 39°14' E 010°49'615.2
2018-Jul-20 09:00N 39°12' E 010°41'1215.1
2018-Jul-20 08:15N 39°09' E 010°27'514.6
2018-Jul-20 07:56N 39°08' E 010°21'4713.8
2018-Jul-20 04:32N 39°04' E 009°21'57 4.8
2018-Jul-19 16:39N 39°18' E 010°32'316.6
2018-Jul-19 16:30N 39°19' E 010°36'3216.4
2018-Jul-19 14:33N 39°31' E 011°14'415.9
2018-Jul-19 14:18N 39°33' E 011°19'3016.2
2018-Jul-19 12:26N 39°45' E 011°55'715.6
2018-Jul-19 12:00N 39°47' E 012°03'2115.6
2018-Jul-19 10:38N 39°56' E 012°29'415.8
2018-Jul-19 10:24N 39°57' E 012°33'1116.0
2018-Jul-19 09:41N 40°02' E 012°46'316.1
2018-Jul-19 09:30N 40°03' E 012°50'816.1
2018-Jul-19 09:00N 40°06' E 012°60'816.2
2018-Jul-19 08:30N 40°09' E 013°10'816.6
2018-Jul-19 08:00N 40°11' E 013°20'816.7
2018-Jul-19 07:30N 40°14' E 013°30'2616.4
2018-Jul-19 05:55N 40°24' E 014°02'916.4
2018-Jul-19 05:23N 40°28' E 014°12'616.6
2018-Jul-19 05:00N 40°30' E 014°20'916.4
2018-Jul-19 04:28N 40°34' E 014°31'9 1.0
2018-Jul-18 19:33N 40°37' E 014°41'216.4
2018-Jul-18 19:26N 40°36' E 014°39'716.4
2018-Jul-18 19:00N 40°32' E 014°32'816.8
2018-Jul-18 18:30N 40°28' E 014°22'714.9
2018-Jul-18 18:00N 40°24' E 014°14'713.7
2018-Jul-18 17:30N 40°20' E 014°06'1313.8
2018-Jul-18 16:34N 40°12' E 013°53'114.1
2018-Jul-18 16:30N 40°12' E 013°52'714.1
2018-Jul-18 16:00N 40°08' E 013°44'714.0
2018-Jul-18 15:30N 40°05' E 013°36'714.1
2018-Jul-18 15:00N 40°01' E 013°28'714.0
2018-Jul-18 14:30N 39°58' E 013°20'6014.7
2018-Jul-18 10:25N 39°30' E 012°11'99 3.1
2018-Jul-17 02:19N 40°24' E 013°59'516.9
2018-Jul-17 02:00N 40°26' E 014°05'917.0
2018-Jul-17 01:30N 40°29' E 014°16'817.0
2018-Jul-17 01:00N 40°32' E 014°26'917.3
2018-Jul-17 00:29N 40°36' E 014°37'3 0.2
2018-Jul-16 11:48N 40°36' E 014°40'516.3
2018-Jul-16 11:30N 40°33' E 014°35'816.3
2018-Jul-16 11:01N 40°29' E 014°26'816.1
2018-Jul-16 10:31N 40°25' E 014°17'815.4
2018-Jul-16 09:59N 40°21' E 014°08'1115.7
2018-Jul-16 09:15N 40°15' E 013°55'415.7
2018-Jul-16 09:00N 40°13' E 013°51'815.5
2018-Jul-16 08:30N 40°09' E 013°42'815.6
2018-Jul-16 08:00N 40°05' E 013°33'815.8
2018-Jul-16 07:29N 40°00' E 013°24'7915.8
2018-Jul-16 02:29N 39°25' E 011°52'816.0
2018-Jul-16 02:01N 39°24' E 011°43'815.9
2018-Jul-16 01:29N 39°22' E 011°32'2616.0
2018-Jul-15 23:49N 39°15' E 010°59'616.1
2018-Jul-15 23:28N 39°14' E 010°52'1416.3
2018-Jul-15 22:37N 39°11' E 010°34'216.3
2018-Jul-15 22:30N 39°10' E 010°32'89 3.7
2018-Jul-14 22:18N 39°51' E 012°15'413.8
2018-Jul-14 22:01N 39°52' E 012°20'713.8
2018-Jul-14 21:30N 39°55' E 012°28'2013.8
2018-Jul-14 20:01N 40°03' E 012°53'214.0
2018-Jul-14 19:51N 40°04' E 012°55'513.6
2018-Jul-14 19:30N 40°06' E 013°01'713.9
2018-Jul-14 18:59N 40°08' E 013°10'714.0
2018-Jul-14 18:28N 40°11' E 013°19'614.0
2018-Jul-14 18:00N 40°13' E 013°27'714.1
2018-Jul-14 17:30N 40°16' E 013°35'714.1
2018-Jul-14 17:00N 40°18' E 013°44'714.1
2018-Jul-14 16:30N 40°21' E 013°52'714.0
2018-Jul-14 16:00N 40°24' E 014°00'714.1
2018-Jul-14 15:30N 40°27' E 014°09'713.7
2018-Jul-14 15:00N 40°30' E 014°17'713.1
2018-Jul-14 14:30N 40°30' E 014°26'1413.4
2018-Jul-14 13:30N 40°36' E 014°42'1 0.1
2018-Jul-14 02:30N 40°36' E 014°40'714.4
2018-Jul-14 02:00N 40°32' E 014°32'715.0
2018-Jul-14 01:30N 40°28' E 014°24'815.1
2018-Jul-14 01:00N 40°24' E 014°15'715.0
2018-Jul-14 00:30N 40°20' E 014°07'815.1
2018-Jul-14 00:00N 40°16' E 013°59'715.1
2018-Jul-13 23:30N 40°12' E 013°50'714.9
2018-Jul-13 23:00N 40°08' E 013°42'714.7
2018-Jul-13 22:30N 40°04' E 013°34'714.8
2018-Jul-13 22:00N 40°00' E 013°26'3314.7
2018-Jul-13 19:46N 39°41' E 012°51'5014.3
2018-Jul-13 16:17N 39°25' E 011°50'414.6
2018-Jul-13 16:00N 39°24' E 011°45'714.6
2018-Jul-13 15:30N 39°22' E 011°36'2914.7
2018-Jul-13 13:30N 39°16' E 010°59'714.5
2018-Jul-13 13:00N 39°14' E 010°50'714.4
2018-Jul-13 12:30N 39°12' E 010°41'814.7
2018-Jul-13 11:56N 39°10' E 010°30'614.4
2018-Jul-13 11:30N 39°09' E 010°22'154 6.1
2018-Jul-12 10:12N 40°13' E 013°24'316.6
2018-Jul-12 10:01N 40°14' E 013°28'816.6
2018-Jul-12 09:30N 40°17' E 013°38'916.7
2018-Jul-12 08:57N 40°21' E 013°50'816.6
2018-Jul-12 08:27N 40°24' E 013°60'716.6
2018-Jul-12 08:00N 40°27' E 014°09'816.7
2018-Jul-12 07:30N 40°30' E 014°19'816.3
2018-Jul-12 07:00N 40°33' E 014°29'8 0.7
2018-Jul-11 19:22N 40°35' E 014°40'  
Track history (hours):
 
Tides and Currents Weather Stations Pressure Air Temp Water Temp Dewpoint Dewpoint Depression Visibility Wind Speed Wind Dir Waves Ship Positions

Norse Mersey

Operator: Norse Merchant Ferries

Last reported at 2018-Jul-21 19:11 UTC. Time now 2018-Jul-22 07:02 UTC.
Position N 40°04' E 012°56'.

Length 175 m; draft 5.6 m.

Type: Ship (hazmat cat A). MMSI: 247026000.

Date/timePositionNaut miles runAvg speedWind from/ knotsBaromVisibWave heightAir tempDewpointWater temp
2018-Jul-21 19:11N 40°04' E 012°56'415.0
2018-Jul-21 18:56N 40°05' E 013°00'615.3
2018-Jul-21 18:30N 40°08' E 013°08'815.2
2018-Jul-21 18:00N 40°12' E 013°17'815.5
2018-Jul-21 17:30N 40°14' E 013°27'816.1
2018-Jul-21 17:00N 40°17' E 013°36'816.3
2018-Jul-21 16:30N 40°20' E 013°46'816.3
2018-Jul-21 16:00N 40°23' E 013°56'816.0
2018-Jul-21 15:30N 40°26' E 014°06'816.3
2018-Jul-21 15:00N 40°29' E 014°16'816.4
2018-Jul-21 14:30N 40°31' E 014°26'12 0.8
2018-Jul-20 23:36N 40°36' E 014°40'215.6
2018-Jul-20 23:29N 40°35' E 014°38'714.2
2018-Jul-20 23:00N 40°31' E 014°31'713.9
2018-Jul-20 22:31N 40°28' E 014°23'714.3
2018-Jul-20 22:00N 40°24' E 014°15'714.2
2018-Jul-20 21:30N 40°20' E 014°07'814.2
2018-Jul-20 20:57N 40°16' E 013°58'614.1
2018-Jul-20 20:29N 40°13' E 013°51'714.1
2018-Jul-20 20:00N 40°09' E 013°43'714.1
2018-Jul-20 19:31N 40°06' E 013°35'713.9
2018-Jul-20 19:01N 40°03' E 013°27'8113.6
2018-Jul-20 13:03N 39°26' E 011°53'213.4
2018-Jul-20 12:55N 39°25' E 011°51'613.8
2018-Jul-20 12:30N 39°24' E 011°44'814.0
2018-Jul-20 11:58N 39°22' E 011°34'913.8
2018-Jul-20 11:20N 39°20' E 011°23'2714.1
2018-Jul-20 09:25N 39°14' E 010°49'615.2
2018-Jul-20 09:00N 39°12' E 010°41'1215.1
2018-Jul-20 08:15N 39°09' E 010°27'514.6
2018-Jul-20 07:56N 39°08' E 010°21'4713.8
2018-Jul-20 04:32N 39°04' E 009°21'57 4.8
2018-Jul-19 16:39N 39°18' E 010°32'316.6
2018-Jul-19 16:30N 39°19' E 010°36'3216.4
2018-Jul-19 14:33N 39°31' E 011°14'415.9
2018-Jul-19 14:18N 39°33' E 011°19'3016.2
2018-Jul-19 12:26N 39°45' E 011°55'715.6
2018-Jul-19 12:00N 39°47' E 012°03'2115.6
2018-Jul-19 10:38N 39°56' E 012°29'415.8
2018-Jul-19 10:24N 39°57' E 012°33'1116.0
2018-Jul-19 09:41N 40°02' E 012°46'316.1
2018-Jul-19 09:30N 40°03' E 012°50'816.1
2018-Jul-19 09:00N 40°06' E 012°60'816.2
2018-Jul-19 08:30N 40°09' E 013°10'816.6
2018-Jul-19 08:00N 40°11' E 013°20'816.7
2018-Jul-19 07:30N 40°14' E 013°30'2616.4
2018-Jul-19 05:55N 40°24' E 014°02'916.4
2018-Jul-19 05:23N 40°28' E 014°12'616.6
2018-Jul-19 05:00N 40°30' E 014°20'916.4
2018-Jul-19 04:28N 40°34' E 014°31'9 1.0
2018-Jul-18 19:33N 40°37' E 014°41'216.4
2018-Jul-18 19:26N 40°36' E 014°39'716.4
2018-Jul-18 19:00N 40°32' E 014°32'816.8
2018-Jul-18 18:30N 40°28' E 014°22'714.9
2018-Jul-18 18:00N 40°24' E 014°14'713.7
2018-Jul-18 17:30N 40°20' E 014°06'1313.8
2018-Jul-18 16:34N 40°12' E 013°53'114.1
2018-Jul-18 16:30N 40°12' E 013°52'714.1
2018-Jul-18 16:00N 40°08' E 013°44'714.0
2018-Jul-18 15:30N 40°05' E 013°36'714.1
2018-Jul-18 15:00N 40°01' E 013°28'714.0
2018-Jul-18 14:30N 39°58' E 013°20'6014.7
2018-Jul-18 10:25N 39°30' E 012°11'99 3.1
2018-Jul-17 02:19N 40°24' E 013°59'516.9
2018-Jul-17 02:00N 40°26' E 014°05'917.0
2018-Jul-17 01:30N 40°29' E 014°16'817.0
2018-Jul-17 01:00N 40°32' E 014°26'917.3
2018-Jul-17 00:29N 40°36' E 014°37'3 0.2
2018-Jul-16 11:48N 40°36' E 014°40'516.3
2018-Jul-16 11:30N 40°33' E 014°35'816.3
2018-Jul-16 11:01N 40°29' E 014°26'816.1
2018-Jul-16 10:31N 40°25' E 014°17'815.4
2018-Jul-16 09:59N 40°21' E 014°08'1115.7
2018-Jul-16 09:15N 40°15' E 013°55'415.7
2018-Jul-16 09:00N 40°13' E 013°51'815.5
2018-Jul-16 08:30N 40°09' E 013°42'815.6
2018-Jul-16 08:00N 40°05' E 013°33'815.8
2018-Jul-16 07:29N 40°00' E 013°24'7915.8
2018-Jul-16 02:29N 39°25' E 011°52'816.0
2018-Jul-16 02:01N 39°24' E 011°43'815.9
2018-Jul-16 01:29N 39°22' E 011°32'2616.0
2018-Jul-15 23:49N 39°15' E 010°59'616.1
2018-Jul-15 23:28N 39°14' E 010°52'1416.3
2018-Jul-15 22:37N 39°11' E 010°34'216.3
2018-Jul-15 22:30N 39°10' E 010°32'89 3.7
2018-Jul-14 22:18N 39°51' E 012°15'413.8
2018-Jul-14 22:01N 39°52' E 012°20'713.8
2018-Jul-14 21:30N 39°55' E 012°28'2013.8
2018-Jul-14 20:01N 40°03' E 012°53'214.0
2018-Jul-14 19:51N 40°04' E 012°55'513.6
2018-Jul-14 19:30N 40°06' E 013°01'713.9
2018-Jul-14 18:59N 40°08' E 013°10'714.0
2018-Jul-14 18:28N 40°11' E 013°19'614.0
2018-Jul-14 18:00N 40°13' E 013°27'714.1
2018-Jul-14 17:30N 40°16' E 013°35'714.1
2018-Jul-14 17:00N 40°18' E 013°44'714.1
2018-Jul-14 16:30N 40°21' E 013°52'714.0
2018-Jul-14 16:00N 40°24' E 014°00'714.1
2018-Jul-14 15:30N 40°27' E 014°09'713.7
2018-Jul-14 15:00N 40°30' E 014°17'713.1
2018-Jul-14 14:30N 40°30' E 014°26'1413.4
2018-Jul-14 13:30N 40°36' E 014°42'1 0.1
2018-Jul-14 02:30N 40°36' E 014°40'714.4
2018-Jul-14 02:00N 40°32' E 014°32'715.0
2018-Jul-14 01:30N 40°28' E 014°24'815.1
2018-Jul-14 01:00N 40°24' E 014°15'715.0
2018-Jul-14 00:30N 40°20' E 014°07'815.1
2018-Jul-14 00:00N 40°16' E 013°59'715.1
2018-Jul-13 23:30N 40°12' E 013°50'714.9
2018-Jul-13 23:00N 40°08' E 013°42'714.7
2018-Jul-13 22:30N 40°04' E 013°34'714.8
2018-Jul-13 22:00N 40°00' E 013°26'3314.7
2018-Jul-13 19:46N 39°41' E 012°51'5014.3
2018-Jul-13 16:17N 39°25' E 011°50'414.6
2018-Jul-13 16:00N 39°24' E 011°45'714.6
2018-Jul-13 15:30N 39°22' E 011°36'2914.7
2018-Jul-13 13:30N 39°16' E 010°59'714.5
2018-Jul-13 13:00N 39°14' E 010°50'714.4
2018-Jul-13 12:30N 39°12' E 010°41'814.7
2018-Jul-13 11:56N 39°10' E 010°30'614.4
2018-Jul-13 11:30N 39°09' E 010°22'154 6.1
2018-Jul-12 10:12N 40°13' E 013°24'316.6
2018-Jul-12 10:01N 40°14' E 013°28'816.6
2018-Jul-12 09:30N 40°17' E 013°38'916.7
2018-Jul-12 08:57N 40°21' E 013°50'816.6
2018-Jul-12 08:27N 40°24' E 013°60'716.6
2018-Jul-12 08:00N 40°27' E 014°09'816.7
2018-Jul-12 07:30N 40°30' E 014°19'816.3
2018-Jul-12 07:00N 40°33' E 014°29'8 0.7
2018-Jul-11 19:22N 40°35' E 014°40'  

Dump ship's entire track history